createdAt,value
2022-08-30T00:02:20.969Z,12.45
2022-08-30T00:04:48.398Z,12.47
2022-08-30T00:07:15.386Z,12.65
2022-08-30T00:09:41.958Z,12.70
2022-08-30T00:12:08.963Z,12.60
2022-08-30T00:14:35.489Z,12.66
2022-08-30T00:17:01.994Z,12.78
2022-08-30T00:19:28.548Z,12.85
2022-08-30T00:21:54.968Z,12.76
2022-08-30T00:24:21.439Z,12.81
2022-08-30T00:26:47.967Z,12.75
2022-08-30T00:29:14.623Z,12.78
2022-08-30T00:31:41.073Z,12.80
2022-08-30T00:34:07.890Z,12.92
2022-08-30T00:36:34.345Z,12.83
2022-08-30T00:39:00.852Z,12.86
2022-08-30T00:41:27.403Z,12.93
2022-08-30T00:43:53.872Z,13.10
2022-08-30T00:46:20.785Z,13.21
2022-08-30T00:48:49.418Z,13.18
2022-08-30T00:51:17.211Z,13.20
2022-08-30T00:53:55.008Z,13.32
2022-08-30T00:56:25.168Z,13.17
2022-08-30T00:58:55.746Z,13.03
2022-08-30T01:01:22.511Z,12.99
2022-08-30T01:03:49.248Z,13.13
2022-08-30T01:06:16.878Z,13.10
2022-08-30T01:08:45.295Z,13.04
2022-08-30T01:11:14.288Z,13.22
2022-08-30T01:13:43.630Z,13.15
2022-08-30T01:16:10.722Z,13.18
2022-08-30T01:18:39.537Z,13.17
2022-08-30T01:21:46.415Z,13.16
2022-08-30T01:24:13.589Z,13.04
2022-08-30T01:26:40.746Z,12.96
2022-08-30T01:29:11.173Z,12.89
2022-08-30T01:31:37.901Z,12.86
2022-08-30T01:34:07.409Z,13.02
2022-08-30T01:36:44.680Z,12.97
2022-08-30T01:39:15.262Z,12.97
2022-08-30T01:41:42.081Z,12.97
2022-08-30T01:44:10.432Z,12.92
2022-08-30T01:46:46.189Z,12.77
2022-08-30T01:49:16.352Z,12.71
2022-08-30T01:51:43.461Z,12.72
2022-08-30T01:54:10.375Z,12.86
2022-08-30T01:56:37.090Z,12.93
2022-08-30T01:59:04.164Z,12.99
2022-08-30T02:01:33.383Z,12.82
2022-08-30T02:04:00.246Z,12.72
2022-08-30T02:06:27.371Z,12.83
2022-08-30T02:08:53.919Z,12.68
2022-08-30T02:11:20.452Z,12.65
2022-08-30T02:13:47.633Z,12.72
2022-08-30T02:16:17.830Z,12.72
2022-08-30T02:18:45.379Z,12.65
2022-08-30T02:21:12.897Z,12.59
2022-08-30T02:23:39.464Z,12.38
2022-08-30T02:26:06.213Z,12.37
2022-08-30T02:28:33.378Z,12.25
2022-08-30T02:31:00.844Z,12.16
2022-08-30T02:33:27.594Z,12.07
2022-08-30T02:35:54.606Z,12.04
2022-08-30T02:38:21.131Z,11.98
2022-08-30T02:40:47.711Z,11.97
2022-08-30T02:43:14.454Z,12.05
2022-08-30T02:45:41.188Z,12.07
2022-08-30T02:48:08.258Z,12.12
2022-08-30T02:50:34.923Z,11.88
2022-08-30T02:53:01.550Z,11.83
2022-08-30T02:55:28.039Z,11.93
2022-08-30T02:57:54.532Z,11.91
2022-08-30T03:00:21.231Z,12.08
2022-08-30T03:02:47.944Z,11.95
2022-08-30T03:05:15.842Z,11.74
2022-08-30T03:07:43.310Z,11.72
2022-08-30T03:10:10.952Z,11.66
2022-08-30T03:12:38.233Z,11.47
2022-08-30T03:15:09.539Z,11.53
2022-08-30T03:17:36.068Z,11.61
2022-08-30T03:20:03.548Z,11.92
2022-08-30T03:22:30.127Z,11.94
2022-08-30T03:24:59.578Z,11.94
2022-08-30T03:27:26.845Z,12.00
2022-08-30T03:29:53.679Z,11.95
2022-08-30T03:32:20.624Z,11.94
2022-08-30T03:34:47.329Z,11.95
2022-08-30T03:37:13.800Z,11.94
2022-08-30T03:39:40.464Z,11.92
2022-08-30T03:42:07.151Z,12.04
2022-08-30T03:44:34.074Z,12.13
2022-08-30T03:47:00.712Z,12.13
2022-08-30T03:49:27.304Z,11.97
2022-08-30T03:51:53.810Z,11.82
2022-08-30T03:54:20.351Z,11.63
2022-08-30T03:56:47.060Z,11.58
2022-08-30T03:59:13.806Z,11.69
2022-08-30T04:01:42.062Z,11.77
2022-08-30T04:04:08.937Z,11.76
2022-08-30T04:06:35.381Z,11.63
2022-08-30T04:09:01.897Z,11.56
2022-08-30T04:11:28.378Z,11.73
2022-08-30T04:13:56.741Z,11.79
2022-08-30T04:16:24.766Z,11.79
2022-08-30T04:18:51.382Z,11.87
2022-08-30T04:21:18.915Z,11.96
2022-08-30T04:23:46.871Z,11.97
2022-08-30T04:26:13.694Z,12.13
2022-08-30T04:28:40.607Z,12.33
2022-08-30T04:31:13.275Z,12.21
2022-08-30T04:33:42.163Z,12.25
2022-08-30T04:36:10.154Z,12.30
2022-08-30T04:38:37.777Z,12.15
2022-08-30T04:41:10.356Z,12.09
2022-08-30T04:43:36.877Z,12.18
2022-08-30T04:46:07.326Z,12.15
2022-08-30T04:48:34.621Z,12.19
2022-08-30T04:51:08.409Z,12.20
2022-08-30T04:53:35.730Z,12.15
2022-08-30T04:56:06.821Z,12.19
2022-08-30T04:58:33.647Z,12.25
2022-08-30T05:01:00.222Z,12.19
2022-08-30T05:03:26.721Z,12.27
2022-08-30T05:05:53.280Z,12.23
2022-08-30T05:08:24.463Z,12.24
2022-08-30T05:10:52.349Z,12.37
2022-08-30T05:13:20.902Z,12.23
2022-08-30T05:15:54.189Z,12.23
2022-08-30T05:18:21.376Z,12.11
2022-08-30T05:20:47.876Z,12.10
2022-08-30T05:23:14.339Z,12.00
2022-08-30T05:25:42.455Z,12.03
2022-08-30T05:28:09.649Z,11.91
2022-08-30T05:30:37.200Z,11.96
2022-08-30T05:33:04.270Z,12.00
2022-08-30T05:35:30.802Z,11.89
2022-08-30T05:37:57.875Z,11.99
2022-08-30T05:40:24.894Z,12.13
2022-08-30T05:42:51.862Z,12.29
2022-08-30T05:45:18.753Z,12.45
2022-08-30T05:47:45.297Z,12.51
2022-08-30T05:50:11.825Z,12.65
2022-08-30T05:52:39.758Z,12.87
2022-08-30T05:55:08.079Z,13.02
2022-08-30T05:57:35.827Z,13.17
2022-08-30T06:00:08.332Z,13.33
2022-08-30T06:02:34.983Z,13.46
2022-08-30T06:05:02.910Z,13.57
2022-08-30T06:07:29.374Z,13.63
2022-08-30T06:09:55.849Z,13.77
2022-08-30T06:12:22.506Z,13.88
2022-08-30T06:14:49.052Z,13.96
2022-08-30T06:17:15.618Z,13.97
2022-08-30T06:19:42.210Z,14.00
2022-08-30T06:22:08.671Z,14.03
2022-08-30T06:24:56.514Z,14.02
2022-08-30T06:27:22.745Z,14.18
2022-08-30T06:29:51.838Z,14.20
2022-08-30T06:32:18.637Z,14.24
2022-08-30T06:34:45.313Z,14.30
2022-08-30T06:37:11.806Z,14.35
2022-08-30T06:39:52.168Z,14.47
2022-08-30T06:42:18.589Z,14.55
2022-08-30T06:44:45.802Z,14.62
2022-08-30T06:47:12.422Z,14.67
2022-08-30T06:49:39.028Z,14.76
2022-08-30T06:52:07.341Z,14.83
2022-08-30T06:54:33.863Z,14.93
2022-08-30T06:57:00.464Z,15.05
2022-08-30T06:59:27.404Z,15.19
2022-08-30T07:01:54.691Z,15.47
2022-08-30T07:04:21.207Z,15.68
2022-08-30T07:06:47.736Z,15.84
2022-08-30T07:09:14.173Z,15.98
2022-08-30T07:11:41.040Z,16.14
2022-08-30T07:14:08.379Z,16.18
2022-08-30T07:16:35.587Z,16.28
2022-08-30T07:19:03.158Z,16.52
2022-08-30T07:21:34.464Z,16.65
2022-08-30T07:24:02.314Z,16.77
2022-08-30T07:26:41.307Z,16.88
2022-08-30T07:29:08.481Z,17.06
2022-08-30T07:31:36.263Z,17.23
2022-08-30T07:34:04.677Z,17.40
2022-08-30T07:36:31.297Z,17.59
2022-08-30T07:38:58.221Z,17.75
2022-08-30T07:41:28.227Z,17.88
2022-08-30T07:43:55.682Z,18.04
2022-08-30T07:46:23.612Z,18.15
2022-08-30T07:48:50.751Z,18.32
2022-08-30T07:51:20.265Z,18.56
2022-08-30T07:53:47.052Z,18.62
2022-08-30T07:56:13.848Z,18.87
2022-08-30T07:58:40.359Z,19.13
2022-08-30T08:01:09.139Z,19.32
2022-08-30T08:03:36.396Z,20.32
2022-08-30T08:06:05.653Z,21.57
2022-08-30T08:08:32.601Z,22.53
2022-08-30T08:11:06.885Z,23.30
2022-08-30T08:13:36.571Z,23.69
2022-08-30T08:16:20.481Z,24.83
2022-08-30T08:18:47.080Z,25.47
2022-08-30T08:21:13.756Z,25.92
2022-08-30T08:23:40.314Z,26.26
2022-08-30T08:26:06.883Z,26.19
2022-08-30T08:28:33.510Z,26.59
2022-08-30T08:31:00.057Z,27.44
2022-08-30T08:33:26.656Z,27.74
2022-08-30T08:35:53.207Z,27.10
2022-08-30T08:38:19.877Z,27.71
2022-08-30T08:41:07.944Z,27.08
2022-08-30T08:43:37.292Z,27.00
2022-08-30T08:46:13.449Z,27.43
2022-08-30T08:48:59.484Z,27.88
2022-08-30T08:51:49.142Z,27.13
2022-08-30T08:54:27.600Z,26.27
2022-08-30T08:56:54.747Z,25.41
2022-08-30T08:59:21.559Z,24.33
2022-08-30T09:01:48.665Z,23.38
2022-08-30T09:04:20.704Z,23.27
2022-08-30T09:07:03.887Z,22.75
2022-08-30T09:09:34.101Z,22.74
2022-08-30T09:12:00.829Z,22.43
2022-08-30T09:14:33.074Z,22.48
2022-08-30T09:17:05.264Z,22.37
2022-08-30T09:19:53.132Z,22.67
2022-08-30T09:22:36.230Z,23.28
2022-08-30T09:25:06.597Z,23.82
2022-08-30T09:27:35.672Z,24.89
2022-08-30T09:30:25.079Z,25.41
2022-08-30T09:32:56.983Z,26.08
2022-08-30T09:35:37.263Z,27.45
2022-08-30T09:38:05.226Z,28.45
2022-08-30T09:40:38.242Z,28.57
2022-08-30T09:43:19.369Z,28.72
2022-08-30T09:46:07.714Z,29.10
2022-08-30T09:48:55.942Z,29.44
2022-08-30T09:51:31.414Z,29.42
2022-08-30T09:54:17.803Z,30.15
2022-08-30T09:57:11.776Z,30.22
2022-08-30T09:59:51.871Z,30.47
2022-08-30T10:02:30.350Z,31.74
2022-08-30T10:05:05.799Z,32.14
2022-08-30T10:07:55.941Z,31.60
2022-08-30T10:10:46.122Z,30.36
2022-08-30T10:13:33.598Z,30.18
2022-08-30T10:16:12.019Z,30.85
2022-08-30T10:18:51.066Z,32.16
2022-08-30T10:21:38.259Z,31.95
2022-08-30T10:24:09.954Z,32.40
2022-08-30T10:26:39.210Z,30.58
2022-08-30T10:29:13.267Z,28.42
2022-08-30T10:31:47.971Z,27.71
2022-08-30T10:34:20.423Z,27.40
2022-08-30T10:36:58.508Z,26.84
2022-08-30T10:39:30.999Z,26.76
2022-08-30T10:45:05.411Z,27.37
2022-08-30T10:48:00.345Z,28.89
2022-08-30T10:50:40.986Z,29.69
2022-08-30T10:53:18.824Z,30.83
2022-08-30T10:55:53.466Z,31.78
2022-08-30T10:58:20.242Z,31.06
2022-08-30T11:00:54.419Z,31.12
2022-08-30T11:03:51.459Z,31.51
2022-08-30T11:06:47.542Z,31.73
2022-08-30T11:09:48.918Z,29.64
2022-08-30T11:12:36.520Z,28.04
2022-08-30T11:15:18.240Z,27.42
2022-08-30T11:18:09.787Z,28.04
2022-08-30T11:20:50.169Z,28.26
2022-08-30T11:23:19.537Z,28.31
2022-08-30T11:25:58.364Z,29.51
2022-08-30T11:28:36.738Z,31.11
2022-08-30T11:31:30.615Z,31.03
2022-08-30T11:34:00.863Z,29.34
2022-08-30T11:36:37.565Z,30.67
2022-08-30T11:39:11.204Z,31.52
2022-08-30T11:41:45.577Z,30.77
2022-08-30T11:44:32.494Z,28.99
2022-08-30T11:47:28.329Z,28.61
2022-08-30T11:50:11.144Z,28.02
2022-08-30T11:53:06.687Z,27.86
2022-08-30T11:56:26.268Z,27.18
2022-08-30T11:59:06.681Z,26.73
2022-08-30T12:01:49.846Z,27.87
2022-08-30T12:04:18.233Z,27.58
2022-08-30T12:07:04.324Z,28.67
2022-08-30T12:09:33.057Z,29.09
2022-08-30T12:12:02.483Z,29.83
2022-08-30T12:14:40.939Z,30.99
2022-08-30T12:17:48.407Z,32.02
2022-08-30T12:20:38.418Z,31.68
2022-08-30T12:23:26.492Z,32.32
2022-08-30T12:26:15.564Z,31.94
2022-08-30T12:28:46.725Z,30.36
2022-08-30T12:31:25.732Z,28.32
2022-08-30T12:34:01.322Z,27.01
2022-08-30T12:36:59.347Z,26.09
2022-08-30T12:39:30.163Z,25.45
2022-08-30T12:42:17.562Z,24.98
2022-08-30T12:44:45.916Z,26.22
2022-08-30T12:47:18.635Z,28.01
2022-08-30T12:49:46.710Z,28.12
2022-08-30T12:52:26.790Z,28.12
2022-08-30T12:54:55.479Z,27.15
2022-08-30T12:57:44.620Z,25.78
2022-08-30T13:00:32.744Z,25.32
2022-08-30T13:03:58.440Z,24.98
2022-08-30T13:07:02.424Z,24.32
2022-08-30T13:09:34.034Z,24.31
2022-08-30T13:15:38.188Z,24.37
2022-08-30T13:18:30.999Z,24.11
2022-08-30T13:21:18.221Z,23.94
2022-08-30T13:23:44.826Z,24.01
2022-08-30T13:26:11.743Z,23.40
2022-08-30T13:29:22.264Z,23.25
2022-08-30T13:31:49.627Z,23.77
2022-08-30T13:40:17.582Z,23.69
2022-08-30T13:45:56.183Z,23.52
2022-08-30T13:52:30.453Z,24.01
2022-08-30T13:54:59.341Z,24.74
2022-08-30T14:00:25.476Z,26.48
2022-08-30T14:02:57.719Z,26.06
2022-08-30T14:05:48.747Z,26.47
2022-08-30T14:11:15.806Z,27.93
2022-08-30T14:16:33.904Z,27.99
2022-08-30T14:19:01.461Z,27.58
2022-08-30T14:21:28.377Z,26.45
2022-08-30T14:23:56.858Z,25.81
2022-08-30T14:26:32.843Z,25.33
2022-08-30T14:28:59.592Z,24.94
2022-08-30T14:31:26.167Z,24.88
2022-08-30T14:33:53.037Z,24.95
2022-08-30T14:36:19.993Z,24.81
2022-08-30T14:38:48.557Z,24.28
2022-08-30T14:41:15.394Z,24.27
2022-08-30T14:43:41.990Z,24.04
2022-08-30T14:46:10.761Z,23.84
2022-08-30T14:48:38.793Z,23.81
2022-08-30T14:51:14.738Z,23.42
2022-08-30T14:53:41.409Z,23.06
2022-08-30T14:56:10.887Z,22.86
2022-08-30T14:58:37.517Z,22.57
2022-08-30T15:01:10.974Z,22.72
2022-08-30T15:03:40.351Z,22.79
2022-08-30T15:06:07.717Z,23.15
2022-08-30T15:08:36.861Z,23.12
2022-08-30T15:11:08.736Z,23.32
2022-08-30T15:13:35.523Z,23.04
2022-08-30T15:16:02.487Z,22.85
2022-08-30T15:18:29.033Z,22.64
2022-08-30T15:20:56.364Z,22.56
2022-08-30T15:23:24.857Z,22.51
2022-08-30T15:25:51.734Z,22.35
2022-08-30T15:28:19.210Z,22.26
2022-08-30T15:30:45.898Z,22.06
2022-08-30T15:33:12.422Z,21.94
2022-08-30T15:35:38.943Z,21.90
2022-08-30T15:38:06.296Z,21.97
2022-08-30T15:40:33.964Z,21.86
2022-08-30T15:43:03.387Z,21.72
2022-08-30T15:45:30.529Z,21.71
2022-08-30T15:48:00.621Z,21.70
2022-08-30T15:50:27.417Z,21.69
2022-08-30T15:52:54.805Z,21.72
2022-08-30T15:55:21.554Z,21.71
2022-08-30T15:57:48.276Z,21.61
2022-08-30T16:00:15.471Z,21.56
2022-08-30T16:02:42.020Z,21.33
2022-08-30T16:05:10.025Z,21.23
2022-08-30T16:07:40.661Z,21.16
2022-08-30T16:10:08.475Z,21.21
2022-08-30T16:12:35.017Z,21.13
2022-08-30T16:15:01.708Z,21.23
2022-08-30T16:17:28.553Z,21.22
2022-08-30T16:19:58.871Z,21.18
2022-08-30T16:22:26.445Z,21.10
2022-08-30T16:24:52.940Z,21.15
2022-08-30T16:27:19.495Z,20.95
2022-08-30T16:29:47.834Z,21.00
2022-08-30T16:32:17.566Z,21.02
2022-08-30T16:34:44.894Z,20.96
2022-08-30T16:37:11.430Z,20.85
2022-08-30T16:39:38.128Z,20.67
2022-08-30T16:42:06.700Z,20.74
2022-08-30T16:44:33.957Z,20.63
2022-08-30T16:47:01.305Z,20.66
2022-08-30T16:49:27.925Z,20.60
2022-08-30T16:51:54.939Z,20.56
2022-08-30T16:54:21.720Z,20.54
2022-08-30T16:56:48.382Z,20.39
2022-08-30T16:59:16.726Z,20.44
2022-08-30T17:01:44.704Z,20.40
2022-08-30T17:04:13.743Z,20.33
2022-08-30T17:06:44.790Z,20.24
2022-08-30T17:09:12.109Z,20.34
2022-08-30T17:11:40.233Z,20.26
2022-08-30T17:14:09.832Z,20.26
2022-08-30T17:16:37.280Z,20.23
2022-08-30T17:19:05.510Z,20.32
2022-08-30T17:21:32.323Z,20.21
2022-08-30T17:24:01.666Z,20.12
2022-08-30T17:26:46.174Z,20.16
2022-08-30T17:29:12.950Z,20.02
2022-08-30T17:31:42.942Z,19.90
2022-08-30T17:34:09.579Z,19.80
2022-08-30T17:36:38.251Z,19.74
2022-08-30T17:39:10.865Z,19.68
2022-08-30T17:41:38.228Z,19.57
2022-08-30T17:44:05.123Z,19.44
2022-08-30T17:46:33.648Z,19.39
2022-08-30T17:49:01.077Z,19.27
2022-08-30T17:51:28.811Z,19.16
2022-08-30T17:53:55.300Z,19.12
2022-08-30T17:56:22.582Z,19.04
2022-08-30T17:58:50.225Z,18.86
2022-08-30T18:01:18.570Z,18.62
2022-08-30T18:03:48.677Z,18.67
2022-08-30T18:06:15.486Z,18.51
2022-08-30T18:08:43.092Z,18.30
2022-08-30T18:11:09.814Z,18.22
2022-08-30T18:13:37.225Z,18.09
2022-08-30T18:16:03.991Z,17.88
2022-08-30T18:18:30.998Z,17.76
2022-08-30T18:20:58.721Z,17.79
2022-08-30T18:23:26.830Z,17.78
2022-08-30T18:26:01.334Z,17.64
2022-08-30T18:28:29.290Z,17.55
2022-08-30T18:30:56.998Z,17.53
2022-08-30T18:33:25.353Z,17.35
2022-08-30T18:35:52.598Z,17.22
2022-08-30T18:38:23.611Z,17.20
2022-08-30T18:40:51.040Z,17.10
2022-08-30T18:43:17.607Z,17.02
2022-08-30T18:45:51.159Z,16.95
2022-08-30T18:48:19.176Z,17.07
2022-08-30T18:50:46.858Z,16.96
2022-08-30T18:53:14.538Z,16.94
2022-08-30T18:55:55.564Z,16.82
2022-08-30T18:58:22.032Z,16.90
2022-08-30T19:00:49.665Z,16.73
2022-08-30T19:03:18.279Z,16.78
2022-08-30T19:05:45.660Z,16.79
2022-08-30T19:08:13.435Z,16.55
2022-08-30T19:10:40.112Z,16.43
2022-08-30T19:13:06.738Z,16.44
2022-08-30T19:15:34.672Z,16.31
2022-08-30T19:18:02.452Z,16.32
2022-08-30T19:20:50.619Z,16.41
2022-08-30T19:23:18.469Z,16.38
2022-08-30T19:25:45.117Z,16.43
2022-08-30T19:28:17.953Z,16.34
2022-08-30T19:30:44.412Z,16.44
2022-08-30T19:33:11.602Z,16.40
2022-08-30T19:35:38.211Z,16.38
2022-08-30T19:38:04.650Z,16.26
2022-08-30T19:40:31.325Z,16.29
2022-08-30T19:42:58.953Z,16.37
2022-08-30T19:45:25.733Z,16.38
2022-08-30T19:47:53.324Z,16.32
2022-08-30T19:50:21.371Z,16.26
2022-08-30T19:52:53.686Z,16.24
2022-08-30T19:55:28.718Z,16.20
2022-08-30T19:57:56.885Z,16.10
2022-08-30T20:00:23.528Z,15.95
2022-08-30T20:02:51.250Z,15.81
2022-08-30T20:30:28.308Z,15.42
2022-08-30T20:45:06.663Z,15.46
2022-08-30T20:47:34.945Z,15.61
2022-08-30T20:50:01.419Z,15.66
2022-08-30T20:52:27.936Z,15.47
2022-08-30T20:54:54.711Z,15.43
2022-08-30T20:57:24.386Z,15.22
2022-08-30T21:59:23.153Z,14.46
2022-08-30T22:01:50.116Z,14.45
2022-08-30T22:04:17.015Z,14.54
2022-08-30T22:06:47.954Z,14.35
2022-08-30T22:09:15.711Z,14.33
2022-08-30T22:11:43.581Z,14.34
2022-08-30T22:14:12.247Z,14.23
2022-08-30T22:16:39.849Z,14.35
2022-08-30T22:19:06.415Z,14.31
2022-08-30T22:21:36.103Z,14.35
2022-08-30T22:24:03.954Z,14.41
2022-08-30T22:26:32.335Z,14.44
2022-08-30T22:28:58.786Z,14.30
2022-08-30T22:31:25.536Z,14.41
2022-08-30T22:33:53.770Z,14.25
2022-08-30T22:36:24.914Z,14.23
2022-08-30T22:39:00.941Z,14.17
2022-08-30T22:41:31.367Z,14.09
2022-08-30T22:43:58.289Z,14.16
2022-08-30T22:46:34.255Z,14.10
2022-08-30T22:49:02.751Z,14.24
2022-08-30T22:51:29.704Z,14.17
2022-08-30T22:53:56.457Z,14.34
2022-08-30T22:56:25.682Z,14.24
2022-08-30T22:58:52.930Z,14.05
2022-08-30T23:01:30.231Z,14.07
2022-08-30T23:03:57.891Z,14.22
2022-08-30T23:06:25.262Z,14.19
2022-08-30T23:08:51.767Z,14.26
2022-08-30T23:11:18.990Z,14.34
2022-08-30T23:13:45.840Z,14.15
2022-08-30T23:16:13.420Z,14.00
2022-08-30T23:18:42.605Z,13.96
2022-08-30T23:21:14.033Z,13.91
2022-08-30T23:23:59.849Z,13.90
2022-08-30T23:26:45.224Z,13.84
2022-08-30T23:29:30.688Z,13.95
2022-08-30T23:32:16.050Z,13.90
2022-08-30T23:35:01.369Z,14.12
2022-08-30T23:37:46.196Z,14.00
2022-08-30T23:40:33.940Z,13.85
2022-08-30T23:43:19.540Z,13.98
2022-08-30T23:46:04.746Z,14.09
2022-08-30T23:48:50.900Z,13.98
2022-08-30T23:51:37.656Z,13.97
2022-08-30T23:54:24.073Z,13.79
2022-08-30T23:57:09.462Z,13.65
2022-08-30T23:59:54.904Z,13.57
